createdAt,value
2023-05-08T00:01:02.941Z,46.02
2023-05-08T00:03:30.244Z,46.07
2023-05-08T00:08:34.207Z,46.04
2023-05-08T00:11:01.216Z,46.05
2023-05-08T00:13:30.040Z,46.23
2023-05-08T00:15:56.847Z,46.42
2023-05-08T00:18:23.552Z,46.48
2023-05-08T00:20:50.849Z,46.44
2023-05-08T00:23:17.645Z,46.47
2023-05-08T00:25:44.380Z,46.69
2023-05-08T00:28:11.180Z,46.62
2023-05-08T00:30:38.501Z,46.70
2023-05-08T00:33:13.017Z,46.61
2023-05-08T00:35:42.368Z,46.63
2023-05-08T00:38:09.450Z,46.69
2023-05-08T00:40:39.465Z,46.65
2023-05-08T00:43:06.849Z,46.64
2023-05-08T00:45:36.589Z,46.63
2023-05-08T00:48:03.515Z,46.67
2023-05-08T00:50:31.388Z,46.81
2023-05-08T00:52:58.304Z,46.97
2023-05-08T00:55:25.184Z,47.14
2023-05-08T00:57:52.347Z,47.14
2023-05-08T01:00:19.212Z,47.13
2023-05-08T01:02:46.743Z,47.23
2023-05-08T01:05:13.764Z,47.38
2023-05-08T01:07:40.864Z,47.33
2023-05-08T01:10:08.115Z,47.45
2023-05-08T01:13:00.261Z,47.54
2023-05-08T01:15:30.664Z,47.67
2023-05-08T01:18:16.686Z,47.67
2023-05-08T01:21:12.169Z,47.77
2023-05-08T01:24:25.237Z,47.75
2023-05-08T01:27:15.173Z,47.83
2023-05-08T01:29:55.239Z,47.80
2023-05-08T01:32:25.870Z,47.94
2023-05-08T01:35:20.952Z,47.99
2023-05-08T01:38:06.312Z,48.00
2023-05-08T01:40:54.318Z,48.02
2023-05-08T01:43:28.593Z,48.16
2023-05-08T01:45:55.862Z,48.25
2023-05-08T01:48:31.140Z,48.27
2023-05-08T01:51:13.755Z,48.32
2023-05-08T01:53:42.244Z,48.44
2023-05-08T01:56:11.552Z,48.45
2023-05-08T01:58:38.670Z,48.48
2023-05-08T02:01:05.579Z,48.56
2023-05-08T02:03:32.477Z,48.68
2023-05-08T02:05:59.397Z,48.69
2023-05-08T02:08:26.446Z,48.61
2023-05-08T02:10:53.497Z,48.76
2023-05-08T02:13:21.492Z,48.95
2023-05-08T02:15:49.074Z,48.90
2023-05-08T02:18:18.445Z,48.89
2023-05-08T02:20:45.381Z,49.04
2023-05-08T02:23:12.290Z,48.93
2023-05-08T02:25:39.229Z,49.12
2023-05-08T02:28:07.550Z,49.02
2023-05-08T02:30:34.452Z,49.01
2023-05-08T02:33:01.332Z,48.99
2023-05-08T02:35:28.271Z,49.00
2023-05-08T02:37:55.521Z,49.17
2023-05-08T02:40:22.998Z,49.19
2023-05-08T02:42:49.928Z,49.18
2023-05-08T02:45:16.858Z,49.18
2023-05-08T02:48:20.087Z,49.40
2023-05-08T02:51:05.749Z,49.46
2023-05-08T02:53:42.675Z,49.66
2023-05-08T02:56:21.538Z,49.56
2023-05-08T02:59:00.935Z,49.75
2023-05-08T03:01:35.201Z,49.75
2023-05-08T03:04:05.732Z,49.79
2023-05-08T03:06:42.209Z,49.62
2023-05-08T03:09:15.901Z,49.70
2023-05-08T03:11:44.674Z,49.80
2023-05-08T03:14:12.171Z,49.73
2023-05-08T03:16:39.639Z,49.87
2023-05-08T03:19:29.876Z,49.69
2023-05-08T03:21:56.918Z,49.62
2023-05-08T03:24:23.829Z,49.63
2023-05-08T03:26:51.077Z,49.62
2023-05-08T03:29:18.007Z,49.47
2023-05-08T03:31:45.254Z,49.50
2023-05-08T03:34:12.404Z,49.45
2023-05-08T03:36:39.998Z,49.58
2023-05-08T03:39:07.124Z,49.62
2023-05-08T03:41:33.969Z,49.61
2023-05-08T03:44:01.366Z,49.64
2023-05-08T03:46:28.175Z,49.57
2023-05-08T03:48:56.052Z,49.52
2023-05-08T03:51:22.924Z,49.43
2023-05-08T03:53:50.552Z,49.38
2023-05-08T03:56:17.946Z,49.39
2023-05-08T03:58:56.148Z,49.35
2023-05-08T04:01:40.227Z,49.58
2023-05-08T04:04:16.289Z,49.48
2023-05-08T04:06:51.185Z,49.42
2023-05-08T04:09:26.639Z,49.61
2023-05-08T04:12:06.133Z,49.67
2023-05-08T04:14:37.197Z,49.51
2023-05-08T04:17:06.825Z,49.47
2023-05-08T04:19:35.925Z,49.53
2023-05-08T04:22:05.831Z,49.65
2023-05-08T04:24:34.620Z,49.68
2023-05-08T04:27:02.049Z,49.77
2023-05-08T04:29:29.760Z,49.57
2023-05-08T04:31:56.587Z,49.54
2023-05-08T04:34:23.551Z,49.69
2023-05-08T04:36:50.413Z,49.68
2023-05-08T04:39:17.701Z,49.52
2023-05-08T04:41:45.233Z,49.60
2023-05-08T04:44:13.360Z,49.74
2023-05-08T04:46:40.559Z,49.81
2023-05-08T04:49:07.668Z,49.65
2023-05-08T04:51:35.846Z,49.63
2023-05-08T04:54:02.667Z,49.76
2023-05-08T04:56:29.903Z,49.67
2023-05-08T04:58:56.686Z,49.73
2023-05-08T05:01:23.856Z,49.84
2023-05-08T05:03:50.784Z,49.52
2023-05-08T05:06:18.675Z,49.50
2023-05-08T05:08:45.410Z,49.58
2023-05-08T05:11:12.312Z,49.57
2023-05-08T05:13:39.422Z,49.52
2023-05-08T05:16:07.159Z,49.48
2023-05-08T05:18:35.868Z,49.14
2023-05-08T05:21:03.760Z,48.86
2023-05-08T05:23:31.418Z,48.87
2023-05-08T05:25:58.234Z,48.73
2023-05-08T05:28:25.605Z,48.53
2023-05-08T05:30:52.631Z,48.05
2023-05-08T05:33:19.670Z,48.05
2023-05-08T05:35:46.852Z,47.82
2023-05-08T05:38:13.624Z,47.68
2023-05-08T05:40:40.722Z,47.66
2023-05-08T05:43:08.395Z,47.53
2023-05-08T05:45:35.701Z,47.53
2023-05-08T05:48:04.866Z,47.32
2023-05-08T05:50:33.274Z,47.19
2023-05-08T05:53:00.325Z,46.88
2023-05-08T05:55:27.595Z,46.86
2023-05-08T05:57:54.787Z,46.63
2023-05-08T06:00:21.871Z,46.24
2023-05-08T06:02:50.725Z,46.05
2023-05-08T06:05:22.533Z,46.20
2023-05-08T06:07:49.791Z,46.09
2023-05-08T06:10:17.206Z,46.13
2023-05-08T06:12:44.240Z,45.99
2023-05-08T06:15:12.127Z,46.12
2023-05-08T06:17:39.496Z,46.35
2023-05-08T06:20:07.784Z,46.68
2023-05-08T06:22:37.065Z,46.08
2023-05-08T06:25:06.511Z,46.05
2023-05-08T06:27:34.530Z,45.86
2023-05-08T06:30:01.577Z,45.23
2023-05-08T06:32:28.787Z,45.16
2023-05-08T06:34:56.166Z,45.16
2023-05-08T06:37:23.140Z,45.05
2023-05-08T06:39:54.702Z,44.85
2023-05-08T06:42:31.299Z,44.99
2023-05-08T06:44:58.100Z,44.83
2023-05-08T06:47:25.302Z,44.78
2023-05-08T06:49:53.411Z,44.51
2023-05-08T06:52:20.510Z,44.24
2023-05-08T06:54:47.183Z,44.27
2023-05-08T06:57:14.154Z,44.02
2023-05-08T06:59:40.895Z,43.81
2023-05-08T07:02:09.321Z,43.50
2023-05-08T07:04:36.714Z,43.20
2023-05-08T07:07:03.586Z,43.35
2023-05-08T07:09:30.502Z,43.32
2023-05-08T07:11:57.661Z,43.34
2023-05-08T07:14:24.456Z,43.39
2023-05-08T07:16:51.285Z,42.91
2023-05-08T07:19:18.806Z,42.91
2023-05-08T07:21:46.856Z,42.90
2023-05-08T07:24:13.778Z,42.89
2023-05-08T07:26:40.873Z,42.40
2023-05-08T07:29:07.738Z,42.53
2023-05-08T07:31:34.784Z,42.21
2023-05-08T07:34:01.931Z,42.46
2023-05-08T07:36:28.952Z,42.29
2023-05-08T07:38:56.262Z,42.41
2023-05-08T07:41:23.126Z,42.45
2023-05-08T07:43:50.047Z,42.77
2023-05-08T07:46:17.692Z,42.59
2023-05-08T07:48:44.755Z,42.36
2023-05-08T07:51:11.750Z,42.45
2023-05-08T07:53:39.064Z,42.58
2023-05-08T07:56:06.129Z,41.78
2023-05-08T07:58:33.260Z,41.35
2023-05-08T08:01:01.315Z,41.72
2023-05-08T08:03:29.206Z,41.64
2023-05-08T08:05:56.462Z,41.49
2023-05-08T08:08:23.492Z,40.01
2023-05-08T08:10:50.474Z,39.46
2023-05-08T08:13:17.963Z,39.39
2023-05-08T08:15:44.880Z,38.41
2023-05-08T08:18:12.562Z,38.66
2023-05-08T08:20:39.606Z,38.29
2023-05-08T08:23:06.401Z,38.77
2023-05-08T08:25:33.306Z,38.96
2023-05-08T08:28:00.394Z,38.86
2023-05-08T08:30:27.183Z,38.99
2023-05-08T08:32:54.166Z,38.97
2023-05-08T08:35:22.367Z,38.58
2023-05-08T08:37:49.622Z,38.34
2023-05-08T08:40:16.606Z,38.22
2023-05-08T08:42:43.442Z,38.18
2023-05-08T08:45:10.476Z,38.31
2023-05-08T08:47:37.833Z,38.18
2023-05-08T08:50:06.298Z,38.06
2023-05-08T08:52:53.930Z,38.00
2023-05-08T08:55:22.671Z,37.84
2023-05-08T08:58:00.118Z,37.68
2023-05-08T09:00:28.532Z,37.33
2023-05-08T09:02:55.337Z,37.16
2023-05-08T09:05:23.053Z,36.96
2023-05-08T09:07:50.929Z,36.97
2023-05-08T09:10:17.889Z,37.13
2023-05-08T09:12:45.137Z,37.19
2023-05-08T09:15:12.641Z,36.55
2023-05-08T09:17:40.292Z,36.96
2023-05-08T09:20:07.737Z,36.25
2023-05-08T09:22:37.710Z,35.99
2023-05-08T09:25:04.853Z,35.91
2023-05-08T09:27:32.261Z,36.34
2023-05-08T09:30:03.544Z,35.82
2023-05-08T09:32:31.666Z,35.33
2023-05-08T09:34:59.184Z,35.52
2023-05-08T09:37:26.859Z,35.60
2023-05-08T09:39:54.256Z,35.53
2023-05-08T09:42:22.871Z,34.95
2023-05-08T09:44:51.148Z,35.28
2023-05-08T09:47:22.549Z,35.15
2023-05-08T09:50:16.338Z,34.97
2023-05-08T09:52:46.483Z,34.24
2023-05-08T09:55:13.299Z,34.27
2023-05-08T09:57:51.023Z,34.51
2023-05-08T10:00:18.084Z,34.60
2023-05-08T10:03:01.637Z,34.37
2023-05-08T10:05:33.905Z,34.15
2023-05-08T10:08:19.584Z,34.32
2023-05-08T10:10:46.760Z,34.12
2023-05-08T10:13:13.876Z,34.04
2023-05-08T10:15:41.803Z,33.82
2023-05-08T10:18:10.477Z,33.57
2023-05-08T10:20:39.728Z,33.51
2023-05-08T10:23:11.117Z,33.62
2023-05-08T10:25:42.247Z,33.68
2023-05-08T10:28:18.392Z,33.75
2023-05-08T10:30:48.247Z,33.75
2023-05-08T10:33:17.541Z,33.68
2023-05-08T10:35:44.883Z,33.47
2023-05-08T10:38:12.064Z,33.44
2023-05-08T10:40:38.942Z,33.57
2023-05-08T10:43:09.530Z,33.37
2023-05-08T10:45:36.412Z,33.44
2023-05-08T10:48:08.375Z,33.38
2023-05-08T10:50:59.102Z,33.57
2023-05-08T10:53:53.775Z,33.79
2023-05-08T10:56:27.242Z,33.82
2023-05-08T10:58:57.809Z,33.77
2023-05-08T11:01:25.444Z,33.94
2023-05-08T11:03:54.449Z,34.17
2023-05-08T11:06:48.695Z,34.12
2023-05-08T11:09:22.563Z,34.09
2023-05-08T11:12:00.345Z,34.21
2023-05-08T11:14:28.070Z,34.12
2023-05-08T11:16:59.690Z,34.01
2023-05-08T11:19:27.327Z,34.09
2023-05-08T11:22:16.664Z,34.35
2023-05-08T11:25:00.561Z,34.40
2023-05-08T11:27:39.750Z,34.15
2023-05-08T11:30:26.446Z,34.09
2023-05-08T11:33:03.070Z,33.79
2023-05-08T11:35:50.488Z,33.23
2023-05-08T11:38:22.887Z,33.29
2023-05-08T11:41:11.626Z,33.61
2023-05-08T11:44:00.220Z,33.72
2023-05-08T11:46:37.895Z,33.57
2023-05-08T11:49:05.196Z,33.18
2023-05-08T11:51:32.628Z,33.20
2023-05-08T11:54:00.047Z,33.19
2023-05-08T11:56:27.028Z,33.03
2023-05-08T11:59:04.058Z,32.97
2023-05-08T12:01:32.406Z,33.01
2023-05-08T12:04:09.775Z,33.20
2023-05-08T12:06:39.134Z,32.92
2023-05-08T12:09:16.031Z,32.85
2023-05-08T12:11:45.075Z,32.95
2023-05-08T12:14:13.112Z,32.83
2023-05-08T12:16:40.127Z,32.80
2023-05-08T12:19:11.035Z,32.66
2023-05-08T12:21:37.966Z,32.31
2023-05-08T12:24:10.884Z,32.06
2023-05-08T12:26:37.866Z,31.98
2023-05-08T12:29:05.833Z,32.02
2023-05-08T12:31:37.059Z,31.99
2023-05-08T12:34:05.447Z,31.45
2023-05-08T12:36:36.172Z,30.92
2023-05-08T12:39:15.897Z,30.50
2023-05-08T12:41:49.688Z,30.63
2023-05-08T12:44:23.355Z,30.67
2023-05-08T12:46:54.285Z,30.71
2023-05-08T12:49:31.078Z,30.88
2023-05-08T12:52:09.281Z,30.88
2023-05-08T12:54:37.567Z,30.54
2023-05-08T12:57:17.586Z,30.53
2023-05-08T12:59:45.366Z,30.55
2023-05-08T13:02:23.763Z,30.67
2023-05-08T13:04:57.688Z,30.75
2023-05-08T13:07:24.871Z,30.49
2023-05-08T13:09:59.522Z,30.91
2023-05-08T13:12:26.984Z,30.92
2023-05-08T13:14:54.220Z,30.91
2023-05-08T13:17:21.381Z,30.53
2023-05-08T13:19:48.502Z,30.64
2023-05-08T13:22:15.354Z,30.69
2023-05-08T13:24:42.227Z,30.64
2023-05-08T13:27:09.432Z,30.61
2023-05-08T13:29:36.993Z,30.49
2023-05-08T13:32:04.170Z,30.41
2023-05-08T13:34:31.527Z,30.55
2023-05-08T13:36:58.756Z,30.54
2023-05-08T13:39:25.682Z,30.70
2023-05-08T13:41:52.672Z,30.74
2023-05-08T13:44:19.724Z,30.79
2023-05-08T13:46:46.558Z,30.90
2023-05-08T13:49:13.767Z,31.05
2023-05-08T13:51:40.816Z,31.03
2023-05-08T13:54:08.239Z,30.84
2023-05-08T13:56:35.237Z,30.75
2023-05-08T13:59:02.453Z,30.93
2023-05-08T14:01:29.855Z,31.13
2023-05-08T14:03:56.820Z,31.18
2023-05-08T14:06:24.178Z,31.21
2023-05-08T14:08:52.742Z,31.41
2023-05-08T14:11:21.862Z,31.40
2023-05-08T14:13:50.850Z,31.46
2023-05-08T14:16:17.974Z,31.45
2023-05-08T14:18:45.404Z,31.32
2023-05-08T14:21:12.287Z,31.14
2023-05-08T14:23:39.610Z,31.25
2023-05-08T14:26:06.869Z,31.34
2023-05-08T14:28:33.965Z,31.24
2023-05-08T14:31:01.138Z,31.30
2023-05-08T14:33:28.180Z,31.38
2023-05-08T14:35:55.159Z,31.46
2023-05-08T14:38:22.386Z,31.41
2023-05-08T14:40:50.512Z,31.01
2023-05-08T14:43:17.951Z,30.85
2023-05-08T14:45:44.858Z,30.99
2023-05-08T14:48:12.007Z,31.14
2023-05-08T14:50:39.131Z,31.35
2023-05-08T14:53:06.164Z,31.50
2023-05-08T14:55:33.698Z,31.33
2023-05-08T14:58:00.654Z,31.07
2023-05-08T15:00:27.720Z,30.93
2023-05-08T15:02:54.835Z,31.00
2023-05-08T15:05:22.159Z,31.16
2023-05-08T15:07:49.698Z,31.28
2023-05-08T15:10:16.711Z,31.47
2023-05-08T15:12:44.129Z,31.62
2023-05-08T15:15:13.188Z,31.56
2023-05-08T15:17:41.130Z,31.80
2023-05-08T15:20:08.754Z,31.66
2023-05-08T15:22:36.481Z,31.70
2023-05-08T15:25:03.949Z,31.51
2023-05-08T15:27:31.254Z,31.33
2023-05-08T15:29:58.701Z,31.03
2023-05-08T15:32:25.747Z,31.04
2023-05-08T15:34:52.707Z,31.13
2023-05-08T15:37:20.219Z,31.25
2023-05-08T15:39:47.211Z,31.35
2023-05-08T15:42:14.545Z,31.36
2023-05-08T15:44:54.679Z,31.60
2023-05-08T15:47:22.682Z,31.51
2023-05-08T15:49:51.415Z,31.11
2023-05-08T15:52:19.157Z,31.01
2023-05-08T15:54:46.618Z,31.24
2023-05-08T15:57:13.912Z,31.41
2023-05-08T15:59:41.073Z,31.49
2023-05-08T16:02:08.207Z,31.69
2023-05-08T16:04:35.516Z,31.53
2023-05-08T16:07:02.795Z,31.81
2023-05-08T16:09:29.807Z,31.91
2023-05-08T16:11:56.722Z,31.93
2023-05-08T16:14:23.864Z,31.97
2023-05-08T16:16:50.808Z,31.97
2023-05-08T16:19:17.695Z,32.12
2023-05-08T16:21:47.466Z,32.27
2023-05-08T16:24:14.519Z,32.29
2023-05-08T16:26:41.492Z,32.55
2023-05-08T16:29:08.428Z,32.68
2023-05-08T16:31:36.325Z,32.83
2023-05-08T16:34:03.733Z,32.98
2023-05-08T16:36:31.327Z,33.14
2023-05-08T16:38:58.281Z,33.20
2023-05-08T16:41:26.273Z,33.20
2023-05-08T16:43:53.321Z,33.37
2023-05-08T16:46:29.128Z,33.55
2023-05-08T16:48:58.356Z,33.82
2023-05-08T16:51:25.248Z,33.69
2023-05-08T16:53:52.233Z,33.47
2023-05-08T16:56:20.267Z,33.56
2023-05-08T16:58:47.373Z,33.61
2023-05-08T17:01:14.556Z,33.69
2023-05-08T17:03:42.913Z,33.67
2023-05-08T17:06:10.253Z,33.65
2023-05-08T17:08:37.389Z,33.65
2023-05-08T17:11:04.648Z,33.79
2023-05-08T17:13:36.497Z,33.93
2023-05-08T17:16:13.208Z,34.18
2023-05-08T17:18:40.835Z,34.26
2023-05-08T17:21:07.990Z,34.31
2023-05-08T17:23:34.936Z,34.33
2023-05-08T17:26:02.068Z,34.44
2023-05-08T17:28:29.356Z,34.56
2023-05-08T17:30:56.477Z,34.75
2023-05-08T17:33:24.051Z,34.92
2023-05-08T17:35:51.244Z,34.82
2023-05-08T17:38:18.326Z,35.01
2023-05-08T17:40:46.151Z,35.08
2023-05-08T17:43:13.543Z,35.33
2023-05-08T17:45:40.495Z,35.52
2023-05-08T17:48:07.531Z,35.54
2023-05-08T17:50:35.109Z,35.61
2023-05-08T17:53:01.957Z,35.79
2023-05-08T17:55:31.170Z,35.86
2023-05-08T17:57:58.375Z,35.99
2023-05-08T18:00:25.447Z,36.00
2023-05-08T18:02:52.552Z,36.24
2023-05-08T18:05:19.816Z,36.48
2023-05-08T18:07:47.578Z,36.40
2023-05-08T18:10:14.796Z,36.40
2023-05-08T18:12:42.108Z,36.43
2023-05-08T18:15:09.541Z,36.58
2023-05-08T18:17:38.304Z,36.70
2023-05-08T18:20:07.485Z,36.90
2023-05-08T18:22:35.148Z,36.93
2023-05-08T18:25:02.357Z,37.04
2023-05-08T18:27:32.966Z,37.06
2023-05-08T18:29:59.926Z,37.18
2023-05-08T18:32:26.990Z,37.22
2023-05-08T18:34:53.848Z,37.29
2023-05-08T18:37:21.422Z,37.42
2023-05-08T18:39:50.304Z,37.37
2023-05-08T18:42:17.330Z,37.51
2023-05-08T18:44:45.731Z,37.72
2023-05-08T18:47:12.793Z,37.69
2023-05-08T18:49:39.992Z,37.68
2023-05-08T18:52:06.909Z,37.95
2023-05-08T18:54:35.414Z,37.96
2023-05-08T18:57:02.287Z,37.95
2023-05-08T18:59:29.288Z,38.10
2023-05-08T19:01:57.137Z,38.08
2023-05-08T19:04:27.251Z,38.18
2023-05-08T19:06:57.434Z,38.34
2023-05-08T19:09:24.369Z,38.24
2023-05-08T19:11:51.385Z,38.34
2023-05-08T19:14:18.426Z,38.43
2023-05-08T19:16:46.638Z,38.45
2023-05-08T19:19:13.442Z,38.50
2023-05-08T19:21:42.921Z,38.64
2023-05-08T19:24:09.977Z,38.70
2023-05-08T19:26:37.272Z,38.76
2023-05-08T19:29:05.084Z,38.76
2023-05-08T19:31:32.405Z,38.76
2023-05-08T19:34:00.965Z,38.70
2023-05-08T19:36:27.887Z,38.97
2023-05-08T19:38:55.316Z,38.91
2023-05-08T19:41:23.645Z,39.06
2023-05-08T19:43:51.129Z,39.14
2023-05-08T19:46:18.239Z,39.05
2023-05-08T19:48:45.192Z,39.28
2023-05-08T19:51:12.275Z,39.28
2023-05-08T19:53:40.028Z,39.47
2023-05-08T19:56:07.235Z,39.37
2023-05-08T19:58:34.343Z,39.41
2023-05-08T20:01:01.373Z,39.49
2023-05-08T20:03:28.392Z,39.48
2023-05-08T20:05:55.526Z,39.62
2023-05-08T20:08:22.886Z,39.77
2023-05-08T20:10:50.080Z,39.71
2023-05-08T20:13:17.218Z,39.79
2023-05-08T20:15:44.607Z,39.90
2023-05-08T20:18:12.200Z,39.78
2023-05-08T20:20:39.160Z,39.89
2023-05-08T20:23:06.793Z,39.91
2023-05-08T20:25:33.806Z,40.23
2023-05-08T20:28:00.793Z,40.25
2023-05-08T20:30:27.870Z,40.29
2023-05-08T20:32:54.958Z,40.42
2023-05-08T20:35:22.166Z,40.36
2023-05-08T20:37:49.192Z,40.25
2023-05-08T20:40:16.266Z,40.20
2023-05-08T20:42:43.709Z,40.29
2023-05-08T20:45:10.997Z,40.26
2023-05-08T20:47:39.206Z,40.30
2023-05-08T20:50:06.840Z,40.28
2023-05-08T20:52:35.367Z,40.32
2023-05-08T20:55:04.962Z,40.36
2023-05-08T20:57:31.922Z,40.40
2023-05-08T20:59:58.849Z,40.41
2023-05-08T21:02:25.836Z,40.46
2023-05-08T21:04:52.835Z,40.51
2023-05-08T21:07:19.968Z,40.59
2023-05-08T21:09:46.880Z,40.66
2023-05-08T21:12:14.831Z,40.69
2023-05-08T21:14:43.581Z,40.63
2023-05-08T21:17:10.477Z,40.53
2023-05-08T21:19:37.721Z,40.55
2023-05-08T21:22:04.806Z,40.70
2023-05-08T21:24:32.105Z,40.63
2023-05-08T21:26:59.535Z,40.56
2023-05-08T21:29:26.587Z,40.57
2023-05-08T21:31:53.572Z,40.49
2023-05-08T21:34:23.337Z,40.47
2023-05-08T21:36:50.475Z,40.49
2023-05-08T21:39:17.339Z,40.54
2023-05-08T21:41:44.306Z,40.72
2023-05-08T21:44:12.276Z,40.67
2023-05-08T21:46:39.824Z,40.54
2023-05-08T21:49:06.747Z,40.55
2023-05-08T21:51:34.235Z,40.66
2023-05-08T21:54:01.163Z,40.64
2023-05-08T21:56:28.060Z,40.58
2023-05-08T21:58:55.267Z,40.66
2023-05-08T22:01:22.173Z,40.57
2023-05-08T22:03:49.248Z,40.64
2023-05-08T22:06:16.501Z,40.75
2023-05-08T22:08:43.488Z,40.80
2023-05-08T22:11:10.470Z,40.83
2023-05-08T22:13:37.423Z,40.88
2023-05-08T22:16:04.812Z,40.91
2023-05-08T22:18:31.736Z,40.94
2023-05-08T22:20:58.764Z,40.94
2023-05-08T22:23:25.772Z,41.05
2023-05-08T22:25:52.747Z,41.30
2023-05-08T22:28:19.705Z,41.35
2023-05-08T22:30:46.764Z,41.27
2023-05-08T22:33:13.655Z,41.38
2023-05-08T22:35:40.760Z,41.59
2023-05-08T22:38:07.571Z,41.63
2023-05-08T22:40:34.766Z,41.73
2023-05-08T22:43:01.684Z,41.97
2023-05-08T22:45:29.261Z,42.06
2023-05-08T22:47:56.239Z,42.36
2023-05-08T22:50:23.217Z,42.52
2023-05-08T22:52:50.162Z,42.73
2023-05-08T22:55:17.504Z,42.83
2023-05-08T22:57:44.576Z,43.17
2023-05-08T23:00:12.164Z,43.36
2023-05-08T23:02:42.151Z,43.52
2023-05-08T23:05:09.223Z,43.47
2023-05-08T23:07:36.133Z,43.83
2023-05-08T23:10:02.941Z,43.94
2023-05-08T23:12:30.610Z,44.37
2023-05-08T23:14:57.502Z,44.45
2023-05-08T23:17:24.495Z,44.58
2023-05-08T23:19:51.489Z,44.74
2023-05-08T23:22:18.375Z,44.73
2023-05-08T23:24:45.218Z,44.87
2023-05-08T23:27:12.354Z,45.00
2023-05-08T23:29:39.214Z,45.10
2023-05-08T23:32:06.357Z,45.19
2023-05-08T23:34:33.595Z,45.32
2023-05-08T23:37:00.920Z,45.33
2023-05-08T23:39:27.910Z,45.52
2023-05-08T23:41:54.928Z,45.66
2023-05-08T23:44:21.977Z,45.88
2023-05-08T23:46:49.003Z,46.17
2023-05-08T23:49:16.114Z,46.44
2023-05-08T23:51:42.955Z,46.45
2023-05-08T23:54:09.870Z,46.84
2023-05-08T23:56:37.132Z,47.11
2023-05-08T23:59:04.156Z,47.29
